sensor_id;sensor_type;location;lat;lon;timestamp;P1;durP1;ratioP1;P2;durP2;ratioP2
75400;SDS011;63974;47.538;18.972;2023-05-10T00:01:57;8.45;;;4.47;;
75400;SDS011;63974;47.538;18.972;2023-05-10T00:05:01;9.63;;;4.33;;
75400;SDS011;63974;47.538;18.972;2023-05-10T00:08:04;7.53;;;4.00;;
75400;SDS011;63974;47.538;18.972;2023-05-10T00:11:06;8.43;;;4.22;;
75400;SDS011;63974;47.538;18.972;2023-05-10T00:14:09;6.80;;;4.00;;
75400;SDS011;63974;47.538;18.972;2023-05-10T00:17:13;8.48;;;4.65;;
75400;SDS011;63974;47.538;18.972;2023-05-10T00:20:17;7.80;;;4.63;;
75400;SDS011;63974;47.538;18.972;2023-05-10T00:23:20;7.90;;;4.50;;
75400;SDS011;63974;47.538;18.972;2023-05-10T00:26:23;7.10;;;4.32;;
75400;SDS011;63974;47.538;18.972;2023-05-10T00:29:28;9.40;;;4.78;;
75400;SDS011;63974;47.538;18.972;2023-05-10T00:32:31;7.50;;;4.18;;
75400;SDS011;63974;47.538;18.972;2023-05-10T00:35:34;9.20;;;4.53;;
75400;SDS011;63974;47.538;18.972;2023-05-10T00:38:37;9.52;;;5.70;;
75400;SDS011;63974;47.538;18.972;2023-05-10T00:41:40;9.75;;;5.20;;
75400;SDS011;63974;47.538;18.972;2023-05-10T00:44:43;8.90;;;5.63;;
75400;SDS011;63974;47.538;18.972;2023-05-10T00:47:45;10.80;;;5.25;;
75400;SDS011;63974;47.538;18.972;2023-05-10T00:50:49;10.07;;;5.27;;
75400;SDS011;63974;47.538;18.972;2023-05-10T00:53:52;13.20;;;5.18;;
75400;SDS011;63974;47.538;18.972;2023-05-10T00:56:56;13.98;;;6.20;;
75400;SDS011;63974;47.538;18.972;2023-05-10T00:59:59;11.45;;;6.18;;
75400;SDS011;63974;47.538;18.972;2023-05-10T01:03:04;10.63;;;5.95;;
75400;SDS011;63974;47.538;18.972;2023-05-10T01:06:07;9.63;;;5.53;;
75400;SDS011;63974;47.538;18.972;2023-05-10T01:09:12;10.70;;;5.78;;
75400;SDS011;63974;47.538;18.972;2023-05-10T01:12:15;12.30;;;6.25;;
75400;SDS011;63974;47.538;18.972;2023-05-10T01:15:17;11.90;;;5.75;;
75400;SDS011;63974;47.538;18.972;2023-05-10T01:18:22;11.02;;;5.85;;
75400;SDS011;63974;47.538;18.972;2023-05-10T01:21:43;10.27;;;5.80;;
75400;SDS011;63974;47.538;18.972;2023-05-10T01:28:16;9.90;;;5.30;;
75400;SDS011;63974;47.538;18.972;2023-05-10T01:35:32;10.45;;;5.93;;
75400;SDS011;63974;47.538;18.972;2023-05-10T01:38:44;12.13;;;5.80;;
75400;SDS011;63974;47.538;18.972;2023-05-10T01:41:54;11.57;;;6.32;;
75400;SDS011;63974;47.538;18.972;2023-05-10T01:48:14;10.43;;;5.70;;
75400;SDS011;63974;47.538;18.972;2023-05-10T01:51:19;12.75;;;5.93;;
75400;SDS011;63974;47.538;18.972;2023-05-10T01:54:26;12.27;;;6.20;;
75400;SDS011;63974;47.538;18.972;2023-05-10T01:57:32;11.32;;;6.32;;
75400;SDS011;63974;47.538;18.972;2023-05-10T02:00:37;12.65;;;5.88;;
75400;SDS011;63974;47.538;18.972;2023-05-10T02:03:45;11.77;;;6.55;;
75400;SDS011;63974;47.538;18.972;2023-05-10T02:06:50;12.73;;;6.75;;
75400;SDS011;63974;47.538;18.972;2023-05-10T02:09:55;13.17;;;6.47;;
75400;SDS011;63974;47.538;18.972;2023-05-10T02:12:58;11.40;;;6.40;;
75400;SDS011;63974;47.538;18.972;2023-05-10T02:16:03;12.13;;;6.50;;
75400;SDS011;63974;47.538;18.972;2023-05-10T02:19:07;14.05;;;6.97;;
75400;SDS011;63974;47.538;18.972;2023-05-10T02:22:12;12.20;;;6.43;;
75400;SDS011;63974;47.538;18.972;2023-05-10T02:25:17;12.13;;;6.83;;
75400;SDS011;63974;47.538;18.972;2023-05-10T02:28:23;15.05;;;6.50;;
75400;SDS011;63974;47.538;18.972;2023-05-10T02:31:28;10.20;;;5.95;;
75400;SDS011;63974;47.538;18.972;2023-05-10T02:34:34;13.20;;;6.97;;
75400;SDS011;63974;47.538;18.972;2023-05-10T02:37:37;11.00;;;5.47;;
75400;SDS011;63974;47.538;18.972;2023-05-10T02:40:42;11.40;;;5.83;;
75400;SDS011;63974;47.538;18.972;2023-05-10T02:43:46;12.10;;;7.03;;
75400;SDS011;63974;47.538;18.972;2023-05-10T02:46:52;10.85;;;6.65;;
75400;SDS011;63974;47.538;18.972;2023-05-10T02:49:56;15.35;;;7.63;;
75400;SDS011;63974;47.538;18.972;2023-05-10T02:53:00;11.82;;;6.88;;
75400;SDS011;63974;47.538;18.972;2023-05-10T02:56:11;13.63;;;6.93;;
75400;SDS011;63974;47.538;18.972;2023-05-10T02:59:19;13.18;;;7.10;;
75400;SDS011;63974;47.538;18.972;2023-05-10T03:02:22;16.15;;;7.85;;
75400;SDS011;63974;47.538;18.972;2023-05-10T03:05:25;16.70;;;8.50;;
75400;SDS011;63974;47.538;18.972;2023-05-10T03:08:28;16.67;;;8.13;;
75400;SDS011;63974;47.538;18.972;2023-05-10T03:11:41;17.07;;;8.80;;
75400;SDS011;63974;47.538;18.972;2023-05-10T03:18:21;20.42;;;9.52;;
75400;SDS011;63974;47.538;18.972;2023-05-10T03:21:25;21.70;;;9.88;;
75400;SDS011;63974;47.538;18.972;2023-05-10T03:24:32;17.42;;;9.73;;
75400;SDS011;63974;47.538;18.972;2023-05-10T03:27:39;16.77;;;9.83;;
75400;SDS011;63974;47.538;18.972;2023-05-10T03:30:45;21.27;;;10.55;;
75400;SDS011;63974;47.538;18.972;2023-05-10T03:33:48;22.25;;;10.13;;
75400;SDS011;63974;47.538;18.972;2023-05-10T03:36:58;18.15;;;9.30;;
75400;SDS011;63974;47.538;18.972;2023-05-10T03:40:04;18.65;;;9.80;;
75400;SDS011;63974;47.538;18.972;2023-05-10T03:43:11;19.30;;;10.13;;
75400;SDS011;63974;47.538;18.972;2023-05-10T03:46:13;17.60;;;9.82;;
75400;SDS011;63974;47.538;18.972;2023-05-10T03:49:16;19.48;;;10.40;;
75400;SDS011;63974;47.538;18.972;2023-05-10T03:52:20;17.58;;;9.77;;
75400;SDS011;63974;47.538;18.972;2023-05-10T03:55:23;18.20;;;9.93;;
75400;SDS011;63974;47.538;18.972;2023-05-10T03:58:26;16.87;;;9.17;;
75400;SDS011;63974;47.538;18.972;2023-05-10T04:01:29;16.98;;;9.43;;
75400;SDS011;63974;47.538;18.972;2023-05-10T04:04:31;17.50;;;8.73;;
75400;SDS011;63974;47.538;18.972;2023-05-10T04:07:34;15.95;;;8.57;;
75400;SDS011;63974;47.538;18.972;2023-05-10T04:10:37;16.23;;;9.07;;
75400;SDS011;63974;47.538;18.972;2023-05-10T04:13:40;15.37;;;8.23;;
75400;SDS011;63974;47.538;18.972;2023-05-10T04:16:43;14.00;;;7.80;;
75400;SDS011;63974;47.538;18.972;2023-05-10T04:19:45;14.93;;;8.65;;
75400;SDS011;63974;47.538;18.972;2023-05-10T04:22:48;13.05;;;6.88;;
75400;SDS011;63974;47.538;18.972;2023-05-10T04:25:51;15.35;;;7.70;;
75400;SDS011;63974;47.538;18.972;2023-05-10T04:28:54;13.73;;;7.90;;
75400;SDS011;63974;47.538;18.972;2023-05-10T04:31:56;13.65;;;7.60;;
75400;SDS011;63974;47.538;18.972;2023-05-10T04:35:00;14.90;;;7.63;;
75400;SDS011;63974;47.538;18.972;2023-05-10T04:38:05;15.90;;;8.30;;
75400;SDS011;63974;47.538;18.972;2023-05-10T04:41:08;12.02;;;7.00;;
75400;SDS011;63974;47.538;18.972;2023-05-10T04:44:12;12.43;;;6.93;;
75400;SDS011;63974;47.538;18.972;2023-05-10T04:47:15;13.10;;;7.43;;
75400;SDS011;63974;47.538;18.972;2023-05-10T04:50:19;12.60;;;7.20;;
75400;SDS011;63974;47.538;18.972;2023-05-10T04:53:22;12.25;;;7.05;;
75400;SDS011;63974;47.538;18.972;2023-05-10T04:56:25;10.70;;;6.68;;
75400;SDS011;63974;47.538;18.972;2023-05-10T04:59:27;15.77;;;6.77;;
75400;SDS011;63974;47.538;18.972;2023-05-10T05:02:30;12.82;;;7.05;;
75400;SDS011;63974;47.538;18.972;2023-05-10T05:05:33;12.13;;;7.45;;
75400;SDS011;63974;47.538;18.972;2023-05-10T05:08:37;11.85;;;7.40;;
75400;SDS011;63974;47.538;18.972;2023-05-10T05:11:39;13.45;;;6.85;;
75400;SDS011;63974;47.538;18.972;2023-05-10T05:14:42;12.20;;;6.80;;
75400;SDS011;63974;47.538;18.972;2023-05-10T05:17:48;12.77;;;7.50;;
75400;SDS011;63974;47.538;18.972;2023-05-10T05:20:51;10.35;;;6.13;;
75400;SDS011;63974;47.538;18.972;2023-05-10T05:23:53;9.75;;;6.45;;
75400;SDS011;63974;47.538;18.972;2023-05-10T05:26:56;9.93;;;6.18;;
75400;SDS011;63974;47.538;18.972;2023-05-10T05:29:59;11.77;;;6.33;;
75400;SDS011;63974;47.538;18.972;2023-05-10T05:33:02;10.98;;;6.70;;
75400;SDS011;63974;47.538;18.972;2023-05-10T05:36:05;10.18;;;6.00;;
75400;SDS011;63974;47.538;18.972;2023-05-10T05:39:08;9.35;;;6.00;;
75400;SDS011;63974;47.538;18.972;2023-05-10T05:42:11;10.52;;;6.60;;
75400;SDS011;63974;47.538;18.972;2023-05-10T05:45:15;9.60;;;5.57;;
75400;SDS011;63974;47.538;18.972;2023-05-10T05:48:19;9.27;;;6.18;;
75400;SDS011;63974;47.538;18.972;2023-05-10T05:51:22;9.57;;;5.82;;
75400;SDS011;63974;47.538;18.972;2023-05-10T05:54:25;10.27;;;5.13;;
75400;SDS011;63974;47.538;18.972;2023-05-10T05:57:29;12.20;;;5.68;;
75400;SDS011;63974;47.538;18.972;2023-05-10T06:00:32;8.60;;;5.90;;
75400;SDS011;63974;47.538;18.972;2023-05-10T06:03:35;8.40;;;5.45;;
75400;SDS011;63974;47.538;18.972;2023-05-10T06:06:38;9.13;;;5.07;;
75400;SDS011;63974;47.538;18.972;2023-05-10T06:09:41;8.57;;;5.82;;
75400;SDS011;63974;47.538;18.972;2023-05-10T06:12:44;10.30;;;6.70;;
75400;SDS011;63974;47.538;18.972;2023-05-10T06:15:47;12.37;;;6.03;;
75400;SDS011;63974;47.538;18.972;2023-05-10T06:18:50;9.50;;;6.03;;
75400;SDS011;63974;47.538;18.972;2023-05-10T06:21:53;9.88;;;5.55;;
75400;SDS011;63974;47.538;18.972;2023-05-10T06:24:56;9.20;;;6.00;;
75400;SDS011;63974;47.538;18.972;2023-05-10T06:27:59;10.60;;;5.82;;
75400;SDS011;63974;47.538;18.972;2023-05-10T06:31:03;8.33;;;5.87;;
75400;SDS011;63974;47.538;18.972;2023-05-10T06:34:07;11.48;;;6.30;;
75400;SDS011;63974;47.538;18.972;2023-05-10T06:37:11;10.32;;;6.20;;
75400;SDS011;63974;47.538;18.972;2023-05-10T06:40:14;9.10;;;5.95;;
75400;SDS011;63974;47.538;18.972;2023-05-10T06:43:20;8.80;;;5.60;;
75400;SDS011;63974;47.538;18.972;2023-05-10T06:46:25;10.13;;;5.53;;
75400;SDS011;63974;47.538;18.972;2023-05-10T06:49:28;8.55;;;6.28;;
75400;SDS011;63974;47.538;18.972;2023-05-10T06:52:31;8.38;;;5.53;;
75400;SDS011;63974;47.538;18.972;2023-05-10T06:55:54;11.18;;;6.20;;
75400;SDS011;63974;47.538;18.972;2023-05-10T06:58:57;9.55;;;6.45;;
75400;SDS011;63974;47.538;18.972;2023-05-10T07:02:00;8.70;;;6.73;;
75400;SDS011;63974;47.538;18.972;2023-05-10T07:05:03;9.27;;;5.85;;
75400;SDS011;63974;47.538;18.972;2023-05-10T07:08:06;11.38;;;7.13;;
75400;SDS011;63974;47.538;18.972;2023-05-10T07:11:10;9.02;;;6.22;;
75400;SDS011;63974;47.538;18.972;2023-05-10T07:14:13;10.70;;;7.40;;
75400;SDS011;63974;47.538;18.972;2023-05-10T07:17:16;11.93;;;6.73;;
75400;SDS011;63974;47.538;18.972;2023-05-10T07:20:19;9.75;;;5.93;;
75400;SDS011;63974;47.538;18.972;2023-05-10T07:23:23;9.38;;;5.88;;
75400;SDS011;63974;47.538;18.972;2023-05-10T07:26:27;8.40;;;5.78;;
75400;SDS011;63974;47.538;18.972;2023-05-10T07:29:30;10.70;;;5.78;;
75400;SDS011;63974;47.538;18.972;2023-05-10T07:32:33;9.93;;;5.80;;
75400;SDS011;63974;47.538;18.972;2023-05-10T07:35:37;9.80;;;6.35;;
75400;SDS011;63974;47.538;18.972;2023-05-10T07:38:40;10.90;;;5.88;;
75400;SDS011;63974;47.538;18.972;2023-05-10T07:41:43;8.40;;;5.65;;
75400;SDS011;63974;47.538;18.972;2023-05-10T07:44:46;9.55;;;5.60;;
75400;SDS011;63974;47.538;18.972;2023-05-10T07:47:50;8.50;;;5.60;;
75400;SDS011;63974;47.538;18.972;2023-05-10T07:50:54;8.30;;;5.50;;
75400;SDS011;63974;47.538;18.972;2023-05-10T07:53:56;8.70;;;6.15;;
75400;SDS011;63974;47.538;18.972;2023-05-10T07:57:00;9.88;;;6.72;;
75400;SDS011;63974;47.538;18.972;2023-05-10T08:00:04;9.10;;;6.63;;
75400;SDS011;63974;47.538;18.972;2023-05-10T08:03:14;7.90;;;5.80;;
75400;SDS011;63974;47.538;18.972;2023-05-10T08:06:17;7.95;;;6.20;;
75400;SDS011;63974;47.538;18.972;2023-05-10T08:09:22;8.15;;;5.75;;
75400;SDS011;63974;47.538;18.972;2023-05-10T08:12:26;7.70;;;5.95;;
75400;SDS011;63974;47.538;18.972;2023-05-10T08:15:29;9.13;;;6.70;;
75400;SDS011;63974;47.538;18.972;2023-05-10T08:18:32;7.53;;;5.13;;
75400;SDS011;63974;47.538;18.972;2023-05-10T08:21:37;8.10;;;5.70;;
75400;SDS011;63974;47.538;18.972;2023-05-10T08:24:40;9.68;;;5.95;;
75400;SDS011;63974;47.538;18.972;2023-05-10T08:27:44;7.78;;;5.72;;
75400;SDS011;63974;47.538;18.972;2023-05-10T08:30:47;7.80;;;5.68;;
75400;SDS011;63974;47.538;18.972;2023-05-10T08:33:52;6.73;;;5.40;;
75400;SDS011;63974;47.538;18.972;2023-05-10T08:36:55;7.70;;;5.85;;
75400;SDS011;63974;47.538;18.972;2023-05-10T08:39:58;7.50;;;5.90;;
75400;SDS011;63974;47.538;18.972;2023-05-10T08:43:05;7.38;;;5.68;;
75400;SDS011;63974;47.538;18.972;2023-05-10T08:46:09;7.00;;;5.75;;
75400;SDS011;63974;47.538;18.972;2023-05-10T08:49:13;6.87;;;5.97;;
75400;SDS011;63974;47.538;18.972;2023-05-10T08:52:22;9.95;;;6.03;;
75400;SDS011;63974;47.538;18.972;2023-05-10T08:55:28;10.05;;;5.35;;
75400;SDS011;63974;47.538;18.972;2023-05-10T08:58:31;7.82;;;5.50;;
75400;SDS011;63974;47.538;18.972;2023-05-10T09:01:35;7.30;;;5.00;;
75400;SDS011;63974;47.538;18.972;2023-05-10T09:04:39;6.37;;;5.33;;
75400;SDS011;63974;47.538;18.972;2023-05-10T09:07:42;6.55;;;4.97;;
75400;SDS011;63974;47.538;18.972;2023-05-10T09:10:44;5.85;;;4.38;;
75400;SDS011;63974;47.538;18.972;2023-05-10T09:13:51;6.40;;;5.15;;
75400;SDS011;63974;47.538;18.972;2023-05-10T09:16:54;7.15;;;5.40;;
75400;SDS011;63974;47.538;18.972;2023-05-10T09:20:07;6.47;;;5.10;;
75400;SDS011;63974;47.538;18.972;2023-05-10T09:23:10;8.50;;;5.25;;
75400;SDS011;63974;47.538;18.972;2023-05-10T09:26:13;5.47;;;4.38;;
75400;SDS011;63974;47.538;18.972;2023-05-10T09:29:16;9.38;;;5.50;;
75400;SDS011;63974;47.538;18.972;2023-05-10T09:32:19;7.18;;;4.85;;
75400;SDS011;63974;47.538;18.972;2023-05-10T09:35:25;6.37;;;5.30;;
75400;SDS011;63974;47.538;18.972;2023-05-10T09:38:33;9.65;;;5.00;;
75400;SDS011;63974;47.538;18.972;2023-05-10T09:41:47;6.85;;;4.75;;
75400;SDS011;63974;47.538;18.972;2023-05-10T09:44:50;6.78;;;4.95;;
75400;SDS011;63974;47.538;18.972;2023-05-10T09:47:53;6.13;;;4.50;;
75400;SDS011;63974;47.538;18.972;2023-05-10T09:50:56;8.97;;;5.47;;
75400;SDS011;63974;47.538;18.972;2023-05-10T09:57:20;5.75;;;4.50;;
75400;SDS011;63974;47.538;18.972;2023-05-10T10:00:24;6.15;;;4.35;;
75400;SDS011;63974;47.538;18.972;2023-05-10T10:03:29;6.75;;;5.05;;
75400;SDS011;63974;47.538;18.972;2023-05-10T10:06:38;11.73;;;6.47;;
75400;SDS011;63974;47.538;18.972;2023-05-10T10:09:42;5.93;;;4.28;;
75400;SDS011;63974;47.538;18.972;2023-05-10T10:12:44;7.30;;;4.18;;
75400;SDS011;63974;47.538;18.972;2023-05-10T10:15:47;6.07;;;4.00;;
75400;SDS011;63974;47.538;18.972;2023-05-10T10:18:53;5.93;;;3.72;;
75400;SDS011;63974;47.538;18.972;2023-05-10T10:21:56;5.47;;;3.80;;
75400;SDS011;63974;47.538;18.972;2023-05-10T10:24:59;4.57;;;3.40;;
75400;SDS011;63974;47.538;18.972;2023-05-10T10:28:07;4.93;;;3.60;;
75400;SDS011;63974;47.538;18.972;2023-05-10T10:31:57;4.93;;;3.90;;
75400;SDS011;63974;47.538;18.972;2023-05-10T10:35:14;7.38;;;4.03;;
75400;SDS011;63974;47.538;18.972;2023-05-10T10:38:18;4.10;;;3.70;;
75400;SDS011;63974;47.538;18.972;2023-05-10T10:41:34;4.38;;;3.90;;
75400;SDS011;63974;47.538;18.972;2023-05-10T10:44:38;4.68;;;3.88;;
75400;SDS011;63974;47.538;18.972;2023-05-10T10:47:41;4.50;;;4.03;;
75400;SDS011;63974;47.538;18.972;2023-05-10T10:50:45;4.25;;;3.50;;
75400;SDS011;63974;47.538;18.972;2023-05-10T10:53:48;4.47;;;3.87;;
75400;SDS011;63974;47.538;18.972;2023-05-10T10:57:09;3.83;;;3.53;;
75400;SDS011;63974;47.538;18.972;2023-05-10T11:03:29;4.03;;;3.08;;
75400;SDS011;63974;47.538;18.972;2023-05-10T11:06:32;4.45;;;3.50;;
75400;SDS011;63974;47.538;18.972;2023-05-10T11:09:39;6.20;;;4.00;;
75400;SDS011;63974;47.538;18.972;2023-05-10T11:15:56;7.28;;;4.00;;
75400;SDS011;63974;47.538;18.972;2023-05-10T11:25:08;4.97;;;3.80;;
75400;SDS011;63974;47.538;18.972;2023-05-10T11:28:11;4.97;;;3.67;;
75400;SDS011;63974;47.538;18.972;2023-05-10T11:31:15;4.55;;;3.58;;
75400;SDS011;63974;47.538;18.972;2023-05-10T11:34:23;4.60;;;3.20;;
75400;SDS011;63974;47.538;18.972;2023-05-10T11:37:29;4.68;;;3.65;;
75400;SDS011;63974;47.538;18.972;2023-05-10T11:40:36;4.10;;;3.37;;
75400;SDS011;63974;47.538;18.972;2023-05-10T11:43:40;6.45;;;3.47;;
75400;SDS011;63974;47.538;18.972;2023-05-10T11:46:44;4.05;;;3.10;;
75400;SDS011;63974;47.538;18.972;2023-05-10T11:49:47;4.55;;;3.40;;
75400;SDS011;63974;47.538;18.972;2023-05-10T11:52:53;3.67;;;3.38;;
75400;SDS011;63974;47.538;18.972;2023-05-10T11:56:06;3.77;;;2.90;;
75400;SDS011;63974;47.538;18.972;2023-05-10T11:59:10;4.18;;;3.20;;
75400;SDS011;63974;47.538;18.972;2023-05-10T12:02:17;3.60;;;3.03;;
75400;SDS011;63974;47.538;18.972;2023-05-10T12:05:19;4.57;;;3.50;;
75400;SDS011;63974;47.538;18.972;2023-05-10T12:08:23;3.72;;;3.40;;
75400;SDS011;63974;47.538;18.972;2023-05-10T12:11:28;6.23;;;3.93;;
75400;SDS011;63974;47.538;18.972;2023-05-10T12:14:33;3.88;;;3.30;;
75400;SDS011;63974;47.538;18.972;2023-05-10T12:17:37;7.07;;;3.35;;
75400;SDS011;63974;47.538;18.972;2023-05-10T12:20:44;3.67;;;3.13;;
75400;SDS011;63974;47.538;18.972;2023-05-10T12:23:50;5.28;;;3.75;;
75400;SDS011;63974;47.538;18.972;2023-05-10T12:26:54;4.67;;;3.40;;
75400;SDS011;63974;47.538;18.972;2023-05-10T12:29:59;4.68;;;3.75;;
75400;SDS011;63974;47.538;18.972;2023-05-10T12:33:12;4.05;;;3.60;;
75400;SDS011;63974;47.538;18.972;2023-05-10T12:36:22;3.30;;;3.00;;
75400;SDS011;63974;47.538;18.972;2023-05-10T12:39:26;3.92;;;3.55;;
75400;SDS011;63974;47.538;18.972;2023-05-10T12:42:39;3.90;;;3.47;;
75400;SDS011;63974;47.538;18.972;2023-05-10T12:45:42;5.10;;;3.13;;
75400;SDS011;63974;47.538;18.972;2023-05-10T12:48:50;4.13;;;2.88;;
75400;SDS011;63974;47.538;18.972;2023-05-10T12:52:09;3.72;;;2.80;;
75400;SDS011;63974;47.538;18.972;2023-05-10T12:55:12;4.40;;;3.05;;
75400;SDS011;63974;47.538;18.972;2023-05-10T12:58:15;3.83;;;2.70;;
75400;SDS011;63974;47.538;18.972;2023-05-10T13:01:36;5.20;;;3.10;;
75400;SDS011;63974;47.538;18.972;2023-05-10T13:04:39;5.10;;;3.05;;
75400;SDS011;63974;47.538;18.972;2023-05-10T13:07:42;4.10;;;2.88;;
75400;SDS011;63974;47.538;18.972;2023-05-10T13:10:46;3.50;;;2.40;;
75400;SDS011;63974;47.538;18.972;2023-05-10T13:13:48;2.97;;;2.60;;
75400;SDS011;63974;47.538;18.972;2023-05-10T13:16:51;4.28;;;2.58;;
75400;SDS011;63974;47.538;18.972;2023-05-10T13:19:55;5.43;;;2.70;;
75400;SDS011;63974;47.538;18.972;2023-05-10T13:22:59;6.72;;;2.20;;
75400;SDS011;63974;47.538;18.972;2023-05-10T13:26:02;3.85;;;2.50;;
75400;SDS011;63974;47.538;18.972;2023-05-10T13:29:05;3.83;;;2.53;;
75400;SDS011;63974;47.538;18.972;2023-05-10T13:32:08;4.10;;;2.42;;
75400;SDS011;63974;47.538;18.972;2023-05-10T13:35:11;2.95;;;2.65;;
75400;SDS011;63974;47.538;18.972;2023-05-10T13:38:14;2.60;;;2.40;;
75400;SDS011;63974;47.538;18.972;2023-05-10T13:41:17;3.30;;;3.00;;
75400;SDS011;63974;47.538;18.972;2023-05-10T13:44:20;3.50;;;2.50;;
75400;SDS011;63974;47.538;18.972;2023-05-10T13:47:22;4.40;;;2.85;;
75400;SDS011;63974;47.538;18.972;2023-05-10T13:50:25;4.07;;;2.50;;
75400;SDS011;63974;47.538;18.972;2023-05-10T13:53:29;3.40;;;2.63;;
75400;SDS011;63974;47.538;18.972;2023-05-10T13:56:33;3.72;;;3.30;;
75400;SDS011;63974;47.538;18.972;2023-05-10T13:59:36;4.80;;;2.40;;
75400;SDS011;63974;47.538;18.972;2023-05-10T14:02:39;3.65;;;2.38;;
75400;SDS011;63974;47.538;18.972;2023-05-10T14:05:43;5.53;;;2.30;;
75400;SDS011;63974;47.538;18.972;2023-05-10T14:08:47;4.80;;;2.35;;
75400;SDS011;63974;47.538;18.972;2023-05-10T14:11:50;4.75;;;3.35;;
75400;SDS011;63974;47.538;18.972;2023-05-10T14:14:53;3.67;;;2.37;;
75400;SDS011;63974;47.538;18.972;2023-05-10T14:17:56;3.58;;;2.00;;
75400;SDS011;63974;47.538;18.972;2023-05-10T14:20:58;4.05;;;2.05;;
75400;SDS011;63974;47.538;18.972;2023-05-10T14:24:01;3.90;;;1.98;;
75400;SDS011;63974;47.538;18.972;2023-05-10T14:27:04;2.65;;;2.30;;
75400;SDS011;63974;47.538;18.972;2023-05-10T14:30:08;5.23;;;2.23;;
75400;SDS011;63974;47.538;18.972;2023-05-10T14:33:11;5.40;;;2.22;;
75400;SDS011;63974;47.538;18.972;2023-05-10T14:36:14;3.40;;;2.05;;
75400;SDS011;63974;47.538;18.972;2023-05-10T14:39:18;7.97;;;2.70;;
75400;SDS011;63974;47.538;18.972;2023-05-10T14:42:21;2.70;;;2.15;;
75400;SDS011;63974;47.538;18.972;2023-05-10T14:45:24;5.47;;;2.97;;
75400;SDS011;63974;47.538;18.972;2023-05-10T14:48:27;4.63;;;2.30;;
75400;SDS011;63974;47.538;18.972;2023-05-10T14:51:29;2.15;;;2.05;;
75400;SDS011;63974;47.538;18.972;2023-05-10T14:54:32;3.22;;;2.63;;
75400;SDS011;63974;47.538;18.972;2023-05-10T14:57:38;2.22;;;1.95;;
75400;SDS011;63974;47.538;18.972;2023-05-10T15:00:41;3.07;;;2.30;;
75400;SDS011;63974;47.538;18.972;2023-05-10T15:03:44;2.95;;;1.92;;
75400;SDS011;63974;47.538;18.972;2023-05-10T15:06:47;3.63;;;2.10;;
75400;SDS011;63974;47.538;18.972;2023-05-10T15:09:50;5.55;;;2.05;;
75400;SDS011;63974;47.538;18.972;2023-05-10T15:12:54;3.72;;;2.20;;
75400;SDS011;63974;47.538;18.972;2023-05-10T15:15:56;3.10;;;1.73;;
75400;SDS011;63974;47.538;18.972;2023-05-10T15:18:59;3.15;;;1.95;;
75400;SDS011;63974;47.538;18.972;2023-05-10T15:22:03;5.18;;;2.50;;
75400;SDS011;63974;47.538;18.972;2023-05-10T15:25:07;2.97;;;2.10;;
75400;SDS011;63974;47.538;18.972;2023-05-10T15:28:10;2.75;;;2.13;;
75400;SDS011;63974;47.538;18.972;2023-05-10T15:31:13;4.17;;;2.13;;
75400;SDS011;63974;47.538;18.972;2023-05-10T15:34:16;2.95;;;2.00;;
75400;SDS011;63974;47.538;18.972;2023-05-10T15:37:20;2.50;;;2.30;;
75400;SDS011;63974;47.538;18.972;2023-05-10T15:40:23;4.20;;;2.45;;
75400;SDS011;63974;47.538;18.972;2023-05-10T15:43:26;2.95;;;2.10;;
75400;SDS011;63974;47.538;18.972;2023-05-10T15:46:29;4.50;;;2.20;;
75400;SDS011;63974;47.538;18.972;2023-05-10T15:49:32;3.35;;;2.30;;
75400;SDS011;63974;47.538;18.972;2023-05-10T15:52:36;2.28;;;2.05;;
75400;SDS011;63974;47.538;18.972;2023-05-10T15:55:38;4.55;;;2.50;;
75400;SDS011;63974;47.538;18.972;2023-05-10T15:58:41;5.50;;;2.47;;
75400;SDS011;63974;47.538;18.972;2023-05-10T16:01:45;4.97;;;2.17;;
75400;SDS011;63974;47.538;18.972;2023-05-10T16:04:48;2.63;;;1.88;;
75400;SDS011;63974;47.538;18.972;2023-05-10T16:07:50;3.97;;;2.25;;
75400;SDS011;63974;47.538;18.972;2023-05-10T16:10:53;7.07;;;2.95;;
75400;SDS011;63974;47.538;18.972;2023-05-10T16:13:56;3.97;;;2.35;;
75400;SDS011;63974;47.538;18.972;2023-05-10T16:16:59;5.87;;;2.20;;
75400;SDS011;63974;47.538;18.972;2023-05-10T16:20:02;2.95;;;2.22;;
75400;SDS011;63974;47.538;18.972;2023-05-10T16:23:05;3.72;;;2.50;;
75400;SDS011;63974;47.538;18.972;2023-05-10T16:26:08;3.90;;;2.10;;
75400;SDS011;63974;47.538;18.972;2023-05-10T16:29:11;5.15;;;2.15;;
75400;SDS011;63974;47.538;18.972;2023-05-10T16:32:14;3.93;;;2.30;;
75400;SDS011;63974;47.538;18.972;2023-05-10T16:35:17;3.40;;;2.10;;
75400;SDS011;63974;47.538;18.972;2023-05-10T16:38:20;3.25;;;2.20;;
75400;SDS011;63974;47.538;18.972;2023-05-10T16:41:23;3.97;;;2.00;;
75400;SDS011;63974;47.538;18.972;2023-05-10T16:44:26;3.88;;;1.90;;
75400;SDS011;63974;47.538;18.972;2023-05-10T16:47:28;5.13;;;2.20;;
75400;SDS011;63974;47.538;18.972;2023-05-10T16:50:31;3.63;;;2.03;;
75400;SDS011;63974;47.538;18.972;2023-05-10T16:53:34;4.90;;;2.20;;
75400;SDS011;63974;47.538;18.972;2023-05-10T16:56:37;4.60;;;1.98;;
75400;SDS011;63974;47.538;18.972;2023-05-10T16:59:40;4.13;;;2.20;;
75400;SDS011;63974;47.538;18.972;2023-05-10T17:02:43;2.20;;;1.67;;
75400;SDS011;63974;47.538;18.972;2023-05-10T17:05:45;2.80;;;1.83;;
75400;SDS011;63974;47.538;18.972;2023-05-10T17:08:48;2.97;;;2.20;;
75400;SDS011;63974;47.538;18.972;2023-05-10T17:11:51;3.92;;;2.08;;
75400;SDS011;63974;47.538;18.972;2023-05-10T17:14:54;2.35;;;1.83;;
75400;SDS011;63974;47.538;18.972;2023-05-10T17:17:57;2.23;;;1.57;;
75400;SDS011;63974;47.538;18.972;2023-05-10T17:20:59;3.42;;;1.60;;
75400;SDS011;63974;47.538;18.972;2023-05-10T17:24:02;3.08;;;1.70;;
75400;SDS011;63974;47.538;18.972;2023-05-10T17:27:05;4.28;;;1.73;;
75400;SDS011;63974;47.538;18.972;2023-05-10T17:30:08;4.38;;;1.70;;
75400;SDS011;63974;47.538;18.972;2023-05-10T17:33:11;3.23;;;2.13;;
75400;SDS011;63974;47.538;18.972;2023-05-10T17:36:14;5.07;;;1.85;;
75400;SDS011;63974;47.538;18.972;2023-05-10T17:39:16;5.30;;;1.67;;
75400;SDS011;63974;47.538;18.972;2023-05-10T17:42:19;4.05;;;1.73;;
75400;SDS011;63974;47.538;18.972;2023-05-10T17:45:22;1.88;;;1.50;;
75400;SDS011;63974;47.538;18.972;2023-05-10T17:48:25;2.33;;;1.33;;
75400;SDS011;63974;47.538;18.972;2023-05-10T17:51:27;4.85;;;1.48;;
75400;SDS011;63974;47.538;18.972;2023-05-10T17:54:30;1.98;;;1.38;;
75400;SDS011;63974;47.538;18.972;2023-05-10T17:57:33;2.60;;;1.25;;
75400;SDS011;63974;47.538;18.972;2023-05-10T18:00:39;4.40;;;1.98;;
75400;SDS011;63974;47.538;18.972;2023-05-10T18:03:42;3.33;;;1.67;;
75400;SDS011;63974;47.538;18.972;2023-05-10T18:06:44;4.10;;;1.40;;
75400;SDS011;63974;47.538;18.972;2023-05-10T18:09:47;4.18;;;1.70;;
75400;SDS011;63974;47.538;18.972;2023-05-10T18:12:50;3.92;;;1.40;;
75400;SDS011;63974;47.538;18.972;2023-05-10T18:15:53;1.73;;;1.48;;
75400;SDS011;63974;47.538;18.972;2023-05-10T18:18:56;3.17;;;1.90;;
75400;SDS011;63974;47.538;18.972;2023-05-10T18:21:59;1.77;;;1.23;;
75400;SDS011;63974;47.538;18.972;2023-05-10T18:25:02;2.58;;;1.23;;
75400;SDS011;63974;47.538;18.972;2023-05-10T18:28:05;1.92;;;1.25;;
75400;SDS011;63974;47.538;18.972;2023-05-10T18:31:09;4.40;;;1.60;;
75400;SDS011;63974;47.538;18.972;2023-05-10T18:34:12;3.80;;;1.40;;
75400;SDS011;63974;47.538;18.972;2023-05-10T18:37:15;2.83;;;1.63;;
75400;SDS011;63974;47.538;18.972;2023-05-10T18:40:18;5.00;;;1.40;;